Jalhay, Belgium
Current Conditions -  °F | °C
As of 11:25 AM on Wednesday 22 Oct 2014 (Local Time) from EBLB Reporting Station
Broken Clouds Broken Clouds  
Wind Chill: 32°   Ceiling: 800
Heat Index: 39°   Visibility: 6mi
Dew Point: 37°   Wind: 13mph
Humidity: 93%   Direction: 300°WNW
Pressure: 30.06"   Gusts: NA
Location:  50.56°N, 5.97°E
Report Text: EBLB 220925Z 30011KT 9999 SCT006 BKN008 BKN013 04/03 Q1018 YLO
Loading
Personal Weather Stations






























Interactive Weather Map
Tropical Storm Tracking
New forecast layout! Learn more

10-Day Weather Forecast

Advertisements
Track Severe Weather on mobile